• Join FlightAware (Why Join?)
  • Login
  • US Flag 
01:07PM EDT


 

Airport Tracker/Info


-or-


 

Live Flight TrackerFlight Track Log ✈ EJA892 ✈ 12-May-2013 ✈ KISN - KMSP

Flight Track Log - Related Links

Times and Time Zones

All times are in EDT time to prevent confusion due to time zone crossing. See the EJA892 flight status page for this flight to view local times or setup timezone preferences in your user account.

Time Position Orientation Groundspeed Altitude Reporting Facility
EDT Latitude Longitude Course Direction KTS MPH feet Rate Location/Type
06:33PM 48.2126 -102.4628 87° East  Level FlightAware Approximate
06:34PM 48.2202 -102.2950 82° East  Level FlightAware Approximate
06:35PM 48.2333 -102.1280 90° East  Level FlightAware Approximate
06:35PM 48.1644 -103.6033 90° East 192 221 3,600  Level Minneapolis Center
06:36PM 48.2334 -101.9596 90° East  Level FlightAware Approximate
06:36PM 48.1683 -103.4983 87° East 256 295 6,000  Level Minneapolis Center
06:37PM 48.2334 -101.7912 90° East  Level FlightAware Approximate
06:37PM 48.1756 -103.3708 85° East 280 322 9,800  Level Salt Lake Center
06:38PM 48.2500 -101.6259 90° East  Level FlightAware Approximate
06:38PM 48.1817 -103.2386 86° East 300 345 13,400  Level Salt Lake Center
06:39PM 48.2500 -101.4575 90° East  Level FlightAware Approximate
06:39PM 48.1889 -103.1003 85° East 316 364 16,800  Level Salt Lake Center
06:40PM 48.2500 -101.2890 90° East  Level FlightAware Approximate
06:40PM 48.1717 -102.9597 100° East 334 384 19,800  Level Minneapolis Center
06:41PM 48.1347 -102.7817 107° East 359 413 22,800 2,640 Climbing Minneapolis Center
06:42PM 48.1025 -102.6292 108° East 371 427 25,300 2,220 Climbing Minneapolis Center
06:43PM 48.0664 -102.4647 108° East 405 466 27,400 1,980 Climbing Minneapolis Center
06:44PM 48.0306 -102.3000 108° East 415 478 29,400 1,740 Climbing Minneapolis Center
06:45PM 47.9925 -102.1303 108° East 427 491 31,100 1,500 Climbing Minneapolis Center
06:46PM 47.9544 -101.9561 108° East 440 506 32,600 1,500 Climbing Minneapolis Center
06:48PM 47.9164 -101.7814 108° East 444 511 34,300 1,140 Climbing Minneapolis Center
06:49PM 47.8694 -101.5667 108° East 454 522 35,000 300 Climbing Minneapolis Center
06:50PM 47.8269 -101.3808 109° East 470 541 35,000  Level Minneapolis Center
06:51PM 47.7883 -101.1961 107° East 472 543 35,000  Level Minneapolis Center
06:52PM 47.7464 -101.0175 109° East 473 544 35,000  Level Minneapolis Center
06:53PM 47.7081 -100.8358 107° East 468 539 35,000  Level Minneapolis Center
06:54PM 47.6597 -100.6239 109° East 458 527 35,000  Level Minneapolis Center
06:55PM 47.6181 -100.4561 110° East 442 509 35,000  Level Minneapolis Center
06:56PM 47.5761 -100.2906 111° Southeast 437 503 35,000  Level Minneapolis Center
06:57PM 47.5375 -100.1225 109° East 435 501 35,000  Level Minneapolis Center
06:58PM 47.4936 -99.9475 110° East 442 509 35,000  Level Minneapolis Center
06:59PM 47.4508 -99.7717 110° East 450 518 35,000  Level Minneapolis Center
07:00PM 47.4011 -99.5636 109° East 452 520 35,000  Level Minneapolis Center
07:01PM 47.3569 -99.3903 111° Southeast 452 520 35,000  Level Minneapolis Center
07:02PM 47.3111 -99.2156 111° Southeast 455 524 35,000  Level Minneapolis Center
07:03PM 47.2667 -99.0350 110° East 465 535 35,000  Level Minneapolis Center
07:04PM 47.2208 -98.8567 111° Southeast 469 540 35,000  Level Minneapolis Center
07:05PM 47.1656 -98.6425 111° Southeast 469 540 35,000  Level Minneapolis Center
07:06PM 47.1200 -98.4633 110° East 472 543 35,000  Level Minneapolis Center
07:07PM 47.0731 -98.2872 111° Southeast 470 541 35,000  Level Minneapolis Center
07:08PM 47.0275 -98.1108 111° Southeast 468 539 35,000  Level Minneapolis Center
07:09PM 46.9819 -97.9364 111° Southeast 465 535 35,000  Level Minneapolis Center
07:10PM 46.9258 -97.7272 111° Southeast 464 534 35,000  Level Minneapolis Center
07:11PM 46.8786 -97.5539 112° Southeast 463 533 35,000  Level Minneapolis Center
07:12PM 46.8322 -97.3792 111° Southeast 464 534 35,000  Level Minneapolis Center
07:13PM 46.7842 -97.2050 112° Southeast 464 534 35,000  Level Minneapolis Center
07:14PM 46.7367 -97.0306 112° Southeast 465 535 35,000  Level Minneapolis Center
07:15PM 46.6886 -96.8561 112° Southeast 465 535 35,000  Level Minneapolis Center
07:16PM 46.6400 -96.6836 112° Southeast 464 534 35,000  Level Minneapolis Center
07:17PM 46.5819 -96.4744 112° Southeast 466 536 35,000  Level Minneapolis Center
07:18PM 46.5333 -96.3031 112° Southeast 463 533 35,000  Level Minneapolis Center
07:19PM 46.4842 -96.1292 112° Southeast 466 536 35,000  Level Minneapolis Center
07:21PM 46.4342 -95.9578 113° Southeast 464 534 35,000  Level Minneapolis Center
07:22PM 46.3847 -95.7875 113° Southeast 460 529 35,000  Level Minneapolis Center
07:23PM 46.3353 -95.6164 113° Southeast 461 531 35,000  Level Minneapolis Center
07:24PM 46.2794 -95.4250 113° Southeast 465 535 35,000  Level Minneapolis Center
07:25PM 46.2286 -95.2536 113° Southeast 467 537 35,000  Level Minneapolis Center
07:26PM 46.1722 -95.0644 113° Southeast 469 540 35,000  Level Minneapolis Center
07:27PM 46.1236 -94.9006 113° Southeast 466 536 35,000  Level Minneapolis Center
07:28PM 46.0717 -94.7303 114° Southeast 465 535 35,000  Level Minneapolis Center
07:29PM 46.0211 -94.5617 113° Southeast 461 531 35,000 -480 Level Minneapolis Center
07:30PM 45.9689 -94.3947 114° Southeast 460 529 34,100 -2,280 Descending Minneapolis Center
07:31PM 45.9078 -94.1925 113° Southeast 460 529 30,400 -3,180 Descending Minneapolis Center
07:32PM 45.8531 -94.0156 114° Southeast 479 551 27,600 -2,700 Descending Minneapolis Center
07:33PM 45.7947 -93.8361 115° Southeast 492 566 24,900 -2,580 Descending Minneapolis Center
07:34PM 45.7022 -93.6922 133° Southeast 494 568 22,300 -2,640 Descending Minneapolis Center
07:35PM 45.5811 -93.6039 153° Southeast 492 566 19,500 -2,640 Descending Minneapolis Center
07:36PM 45.4589 -93.5403 160° South 471 542 17,000 -2,580 Descending Minneapolis Center
07:37PM 45.3436 -93.4775 159° South 447 514 14,300 -2,640 Descending Minneapolis Center
07:38PM 45.2117 -93.4072 159° South 421 484 11,700 -1,620 Descending Minneapolis Center
07:39PM 45.1058 -93.3514 160° South 405 466 11,000 -1,260 Descending Minneapolis Center
07:40PM 45.0231 -93.3058 159° South 321 369 9,200 -1,500 Descending Minneapolis Center
07:41PM 44.9719 -93.2142 128° Southeast 298 343 8,000 -840 Descending Minneapolis Center
07:42PM 44.9314 -93.1272 123° Southeast 254 292 7,600 -540 Descending Minneapolis Center
07:43PM 44.8964 -93.0456 121° Southeast 242 278 7,000 -600 Descending Minneapolis Center
07:44PM 44.8631 -92.9653 120° Southeast 238 274 6,400 -840 Descending Minneapolis Center
07:45PM 44.8078 -92.9536 171° South 224 258 5,400 -1,080 Descending Minneapolis Center
07:46PM 44.7850 -93.0153 243° Southwest 197 227 4,300 -1,260 Descending Minneapolis Center
07:47PM 44.8231 -93.0844 308° West 189 217 2,900 -1,200 Descending Minneapolis Center
07:48PM 44.8478 -93.1419 301° West 165 190 1,900 -840 Descending Minneapolis Center
07:49PM 44.8658 -93.1831 302° West 127 146 1,200 -720 Descending Minneapolis Center
07:51PM 44.8667 -93.2167 290° West  Level FlightAware Approximate
07:58PM 44.8820 -93.2218 290° West  Level Estimated